Latest Weather Observations for Lucinda

IDQ60801

Issued at 10:05 am EST Tuesday 23 September 2014 (issued every 30 minutes, with the page automatically refreshed every 10 minutes)

About weather observations | Map of weather stations | Latest weather observations for QLD | Other Formats
Station Details ID: 032141 Name: LUCINDA POINT Lat: -18.52 Lon: 146.39 Height: 10.0 m
Data from the previous 72 hours. | See also: Recent months for locations in Queensland
Date/Time
EST
Temp
°C
App
Temp
°C
Dew
Point
Rel
Hum
%
Delta-T
°C
Wind Press
QNH
hPa
Press
MSL
hPa
Rain
since 9 am
mm
Dir
 
Spd
km/h
Gust
km/h
Spd
kts
Gust
kts
23/10:00am 22.6 22.0 18.8 79 2.4 SE 20 32 11 17 1019.5 1019.5 0.4
23/09:30am 22.4 22.4 19.0 81 2.1 S 17 28 9 15 1019.2 1019.2 0.2
23/09:00am 21.8 22.4 20.3 91 1.0 S 17 24 9 13 1019.1 1019.1 36.8
23/08:41am 21.9 21.9 20.9 94 0.7 SE 22 32 12 17 1019.2 1019.2 34.4
23/08:31am 21.9 18.2 20.7 93 0.8 S 41 59 22 32 1018.8 1018.8 34.2
23/08:30am 22.0 18.0 21.0 94 0.7 S 43 59 23 32 1018.8 1018.8 34.2
23/08:19am 21.2 15.9 19.5 90 1.1 S 46 61 25 33 1018.7 1018.7 30.6
23/08:00am 21.8 20.0 19.5 87 1.5 SE 28 48 15 26 1018.8 1018.8 13.0
23/07:56am 22.5 20.7 20.4 88 1.4 SE 30 48 16 26 1018.6 1018.6 12.6
23/07:30am 22.0 21.8 19.4 85 1.7 ESE 19 33 10 18 1018.3 1018.3 10.8
23/07:00am 22.2 22.1 19.9 87 1.5 ESE 20 32 11 17 1017.8 1017.8 10.8
23/06:30am 22.2 21.4 20.1 88 1.4 SE 24 41 13 22 1017.3 1017.3 10.8
23/06:00am 22.9 23.3 21.0 89 1.2 SE 20 33 11 18 1017.0 1017.0 7.6
23/05:54am 22.6 20.8 19.6 83 1.9 E 28 46 15 25 1016.8 1016.8 4.8
23/05:30am 22.7 21.2 18.5 77 2.6 SE 24 44 13 24 1016.3 1016.3 4.0
23/05:00am 23.1 20.9 18.8 77 2.7 SE 28 39 15 21 1016.2 1016.2 4.0
23/04:30am 22.9 21.4 17.6 72 3.3 ESE 22 41 12 22 1016.0 1016.0 4.0
23/04:00am 22.1 20.3 19.5 85 1.7 ESE 28 48 15 26 1015.9 1015.9 3.4
23/03:59am 22.0 20.0 19.2 84 1.8 ESE 28 48 15 26 1015.8 1015.8 3.4
23/03:30am 22.5 21.2 19.9 85 1.7 SE 26 41 14 22 1015.6 1015.6 3.4
23/03:17am 22.3 19.8 18.1 77 2.6 ESE 28 52 15 28 1015.6 1015.6 2.6
23/03:00am 23.2 22.5 18.7 76 2.8 SE 20 37 11 20 1015.7 1015.7 0.4
23/02:30am 23.0 22.1 18.1 74 3.1 E 20 32 11 17 1015.7 1015.7 0.4
23/02:00am 22.7 20.9 17.8 74 3.0 ESE 24 37 13 20 1015.8 1015.8 0.4
23/01:32am 22.8 20.0 17.3 71 3.4 E 28 48 15 26 1015.8 1015.8 0.4
23/01:30am 23.2 21.5 18.1 73 3.2 E 24 35 13 19 1015.9 1015.9 0.4
23/01:00am 23.0 21.2 17.9 73 3.2 ESE 24 48 13 26 1016.2 1016.2 0.4
23/12:30am 23.3 22.4 18.2 73 3.2 ESE 20 32 11 17 1016.9 1016.9 0.0
23/12:00am 23.5 22.2 18.2 72 3.3 ESE 22 33 12 18 1017.1 1017.1 0.0
 
Date/Time
EST
Temp
°C
App
Temp
°C
Dew
Point
Rel
Hum
%
Delta-T
°C
Wind Press
QNH
hPa
Press
MSL
hPa
Rain
since 9 am
mm
Dir
 
Spd
km/h
Gust
km/h
Spd
kts
Gust
kts
22/11:30pm 23.7 22.8 18.1 71 3.5 ESE 20 35 11 19 1017.4 1017.4 0.0
22/11:00pm 23.6 22.5 17.8 70 3.6 ESE 20 35 11 19 1017.8 1017.8 0.0
22/10:30pm 23.5 21.9 17.5 69 3.7 SE 22 37 12 20 1017.5 1017.5 0.0
22/10:00pm 23.5 22.1 17.9 71 3.5 ESE 22 37 12 20 1017.7 1017.7 0.0
22/09:30pm 23.5 22.6 18.2 72 3.3 ESE 20 32 11 17 1017.7 1017.7 0.0
22/09:00pm 23.7 22.2 17.7 69 3.7 ESE 22 32 12 17 1017.6 1017.6 0.0
22/08:30pm 23.7 22.2 17.7 69 3.7 ESE 22 37 12 20 1017.4 1017.4 0.0
22/08:00pm 23.7 21.8 17.7 69 3.7 E 24 37 13 20 1016.8 1016.8 0.0
22/07:30pm 23.7 21.7 17.4 68 3.9 ESE 24 37 13 20 1016.8 1016.8 0.0
22/07:00pm 23.8 22.1 18.0 70 3.6 ESE 24 39 13 21 1016.4 1016.4 0.0
22/06:30pm 23.5 21.2 17.7 70 3.6 ESE 26 37 14 20 1016.1 1016.1 0.0
22/06:00pm 23.8 21.8 17.3 67 4.0 ESE 24 32 13 17 1015.6 1015.6 0.0
22/05:30pm 24.0 21.8 17.0 65 4.3 ESE 24 32 13 17 1015.4 1015.4 0.0
22/05:00pm 24.2 22.5 17.2 65 4.3 ESE 22 30 12 16 1015.0 1015.0 0.0
22/04:30pm 24.3 22.1 16.8 63 4.6 ESE 24 33 13 18 1014.8 1014.8 0.0
22/04:00pm 24.4 22.8 16.6 61 4.8 E 20 28 11 15 1014.8 1014.8 0.0
22/03:30pm 24.3 22.9 16.6 62 4.7 E 19 24 10 13 1014.7 1014.7 0.0
22/03:00pm 24.5 23.3 16.0 59 5.2 E 17 20 9 11 1014.9 1014.9 0.0
22/02:30pm 24.3 22.6 16.3 61 4.9 ENE 20 26 11 14 1015.1 1015.1 0.0
22/02:00pm 23.9 21.8 16.2 62 4.7 ENE 22 28 12 15 1015.3 1015.3 0.0
22/01:30pm 24.5 23.1 16.5 61 4.9 E 19 22 10 12 1015.7 1015.7 0.0
22/01:00pm 24.3 22.7 16.6 62 4.7 NE 20 24 11 13 1016.3 1016.3 0.0
22/12:30pm 24.3 22.6 15.8 59 5.1 ENE 19 22 10 12 1016.6 1016.6 0.0
22/12:00pm 24.6 23.3 16.8 62 4.8 ENE 19 22 10 12 1017.0 1017.0 0.0
22/11:30am 24.8 24.0 16.0 58 5.4 ENE 15 20 8 11 1017.6 1017.6 0.0
22/11:00am 24.7 23.5 16.2 59 5.2 ENE 17 20 9 11 1017.8 1017.8 0.0
22/10:30am 24.4 23.5 15.9 59 5.2 ENE 15 20 8 11 1018.1 1018.1 0.0
22/10:00am 24.4 22.6 15.6 58 5.3 ENE 19 22 10 12 1018.3 1018.3 0.0
22/09:30am 24.2 22.0 14.9 56 5.6 NE 20 24 11 13 1018.5 1018.5 0.0
22/09:00am 24.1 21.5 13.9 53 6.0 ENE 20 28 11 15 1018.4 1018.4 0.0
22/08:30am 24.4 22.5 15.1 56 5.6 ENE 19 26 10 14 1018.3 1018.3 0.0
22/08:00am 24.1 21.0 14.5 55 5.7 ENE 24 30 13 16 1017.8 1017.8 0.0
22/07:30am 24.1 22.3 15.6 59 5.1 E 19 24 10 13 1017.6 1017.6 0.0
22/07:00am 23.6 20.7 15.1 59 5.1 ENE 24 33 13 18 1017.0 1017.0 0.0
22/06:30am 23.6 20.9 14.6 57 5.3 ENE 22 30 12 16 1016.8 1016.8 0.0
22/06:00am 23.4 20.4 14.9 59 5.0 E 24 35 13 19 1016.6 1016.6 0.0
22/05:30am 23.3 19.9 14.8 59 5.0 E 26 32 14 17 1016.3 1016.3 0.0
22/05:00am 23.4 19.4 14.1 56 5.5 E 28 35 15 19 1015.9 1015.9 0.0
22/04:30am 23.5 19.7 14.8 58 5.2 E 28 35 15 19 1015.5 1015.5 0.0
22/04:00am 23.3 19.6 15.1 60 4.9 E 28 35 15 19 1015.5 1015.5 0.0
22/03:30am 23.3 19.5 14.6 58 5.1 E 28 37 15 20 1015.5 1015.5 0.0
22/03:00am 23.3 18.8 14.8 59 5.0 E 32 39 17 21 1015.7 1015.7 0.0
22/02:30am 23.4 20.0 15.7 62 4.6 ENE 28 41 15 22 1016.2 1016.2 0.0
22/02:00am 23.3 18.9 15.1 60 4.9 E 32 41 17 22 1016.3 1016.3 0.0
22/01:30am 23.5 20.1 15.8 62 4.7 E 28 39 15 21 1016.8 1016.8 0.0
22/01:00am 23.6 20.6 15.9 62 4.7 E 26 33 14 18 1017.3 1017.3 0.0
22/12:30am 23.4 19.6 14.7 58 5.2 E 28 37 15 20 1017.4 1017.4 0.0
22/12:00am 23.7 19.4 14.4 56 5.5 E 30 37 16 20 1017.4 1017.4 0.0
 
Date/Time
EST
Temp
°C
App
Temp
°C
Dew
Point
Rel
Hum
%
Delta-T
°C
Wind Press
QNH
hPa
Press
MSL
hPa
Rain
since 9 am
mm
Dir
 
Spd
km/h
Gust
km/h
Spd
kts
Gust
kts
21/11:30pm 23.8 20.0 15.8 61 4.8 E 30 41 16 22 1017.9 1017.9 0.0
21/11:00pm 23.6 19.4 14.6 57 5.3 E 30 41 16 22 1018.0 1018.0 0.0
21/10:30pm 23.6 21.1 16.1 62 4.6 E 24 33 13 18 1018.2 1018.2 0.0
21/10:00pm 23.5 20.0 15.5 60 4.8 ESE 28 35 15 19 1018.3 1018.3 0.0
21/09:30pm 23.6 21.1 16.1 62 4.6 ESE 24 35 13 19 1018.3 1018.3 0.0
21/09:00pm 23.7 20.5 15.2 59 5.1 ESE 26 35 14 19 1018.2 1018.2 0.0
21/08:30pm 23.7 21.7 16.5 64 4.4 E 22 32 12 17 1018.0 1018.0 0.0
21/08:00pm 23.8 20.9 16.1 62 4.7 ESE 26 33 14 18 1017.7 1017.7 0.0
21/07:30pm 23.7 21.6 16.2 63 4.6 ESE 22 32 12 17 1017.3 1017.3 0.0
21/07:00pm 23.7 21.4 15.7 61 4.8 ESE 22 33 12 18 1016.9 1016.9 0.0
21/06:30pm 23.8 20.5 16.1 62 4.7 ESE 28 39 15 21 1016.6 1016.6 0.0
21/06:00pm 23.8 21.0 16.3 63 4.6 ESE 26 39 14 21 1016.3 1016.3 0.0
21/05:30pm 24.1 22.3 16.9 64 4.4 ESE 22 41 12 22 1016.5 1016.5 0.0
21/05:00pm 24.2 22.8 17.0 64 4.4 SE 20 37 11 20 1016.5 1016.5 0.0
21/04:30pm 24.6 23.5 17.3 64 4.5 ESE 19 30 10 16 1016.4 1016.4 0.0
21/04:00pm 25.1 23.9 17.6 63 4.7 ESE 20 30 11 16 1016.5 1016.5 0.0
21/03:30pm 25.2 24.1 17.4 62 4.9 ESE 19 26 10 14 1016.2 1016.2 0.0
21/03:00pm 25.5 25.7 17.7 62 4.9 E 13 19 7 10 1016.2 1016.2 0.0
21/02:30pm 24.6 23.2 17.1 63 4.6 E 20 24 11 13 1016.3 1016.3 0.0
21/02:00pm 25.0 24.2 17.2 62 4.8 E 17 22 9 12 1016.5 1016.5 0.0
21/01:30pm 24.9 23.6 16.9 61 4.9 E 19 24 10 13 1016.7 1016.7 0.0
21/01:00pm 24.8 23.5 16.8 61 4.9 E 19 22 10 12 1017.0 1017.0 0.0
21/12:30pm 24.8 24.3 16.8 61 4.9 ENE 15 20 8 11 1017.4 1017.4 0.0
21/12:00pm 24.7 23.4 16.9 62 4.8 ENE 19 22 10 12 1017.9 1017.9 0.0
21/11:30am 24.9 23.8 16.3 59 5.3 E 17 24 9 13 1018.3 1018.3 0.0
21/11:00am 24.7 23.2 16.2 59 5.2 E 19 24 10 13 1018.5 1018.5 0.0
21/10:30am 24.6 23.1 16.3 60 5.1 E 19 24 10 13 1018.7 1018.7 0.0
21/10:00am 24.3 22.7 16.6 62 4.7 E 20 26 11 14 1018.8 1018.8 0.0
21/09:30am 24.4 22.6 16.9 63 4.6 E 22 28 12 15 1018.4 1018.4 0.0
21/09:00am 24.4 22.5 16.6 61 4.8 E 22 28 12 15 1018.5 1018.5 0.0
21/08:30am 24.3 23.2 17.3 65 4.3 E 19 24 10 13 1018.5 1018.5 0.0
21/08:00am 24.2 23.1 17.2 65 4.3 ESE 19 28 10 15 1018.1 1018.1 0.0
21/07:30am 23.6 22.2 16.9 66 4.1 E 20 28 11 15 1017.7 1017.7 0.0
21/07:00am 23.5 21.7 17.0 67 4.0 ESE 22 28 12 15 1017.4 1017.4 0.0
21/06:30am 23.4 22.0 16.9 67 4.0 ESE 20 28 11 15 1017.0 1017.0 0.0
21/06:00am 23.4 21.6 16.9 67 4.0 ESE 22 30 12 16 1016.6 1016.6 0.0
21/05:30am 23.4 23.4 17.2 68 3.8 E 13 17 7 9 1016.4 1016.4 0.0
21/05:00am 23.2 22.9 16.5 66 4.1 ESE 13 20 7 11 1016.1 1016.1 0.0
21/04:30am 23.2 22.5 16.5 66 4.1 ESE 15 20 8 11 1015.8 1015.8 0.0
21/04:00am 23.2 21.5 16.3 65 4.2 ESE 20 28 11 15 1015.5 1015.5 0.0
21/03:30am 23.3 21.9 16.6 66 4.1 ESE 19 26 10 14 1015.6 1015.6 0.0
21/03:00am 23.2 21.8 16.5 66 4.1 ESE 19 26 10 14 1015.6 1015.6 0.0
21/02:30am 23.2 23.4 16.7 67 4.0 SE 11 17 6 9 1015.8 1015.8 0.0
21/02:00am 23.2 23.4 16.7 67 4.0 SE 11 15 6 8 1016.3 1016.3 0.0
21/01:30am 23.2 23.3 16.5 66 4.1 ESE 11 20 6 11 1016.8 1016.8 0.0
21/01:00am 23.3 23.5 16.8 67 4.0 ESE 11 17 6 9 1017.2 1017.2 0.0
21/12:30am 23.5 22.8 16.3 64 4.4 E 15 20 8 11 1017.2 1017.2 0.0
21/12:00am 23.6 22.6 16.6 65 4.3 E 17 20 9 11 1017.5 1017.5 0.0
 
Date/Time
EST
Temp
°C
App
Temp
°C
Dew
Point
Rel
Hum
%
Delta-T
°C
Wind Press
QNH
hPa
Press
MSL
hPa
Rain
since 9 am
mm
Dir
 
Spd
km/h
Gust
km/h
Spd
kts
Gust
kts
20/11:30pm 23.6 22.0 16.6 65 4.3 ENE 20 22 11 12 1017.5 1017.5 0.0
20/11:00pm 23.7 23.0 17.4 68 3.9 ENE 17 24 9 13 1017.5 1017.5 0.0
20/10:30pm 23.4 21.5 16.7 66 4.1 NE 22 28 12 15 1017.6 1017.6 0.0
20/10:00pm 23.5 21.6 16.8 66 4.1 NE 22 30 12 16 1017.6 1017.6 0.0
20/09:30pm 23.7 22.0 17.2 67 4.0 NE 22 24 12 13 1017.3 1017.3 0.0
20/09:00pm 23.5 22.4 17.3 68 3.8 NNE 19 20 10 11 1017.0 1017.0 0.0
20/08:30pm 23.3 22.0 16.8 67 4.0 N 19 22 10 12 1016.7 1016.7 0.0
20/08:00pm 23.4 21.6 16.9 67 4.0 N 22 26 12 14 1016.4 1016.4 0.0
20/07:30pm 23.5 21.8 17.3 68 3.8 N 22 26 12 14 1016.0 1016.0 0.0
20/07:00pm 23.5 21.3 16.8 66 4.1 NNE 24 28 13 15 1015.6 1015.6 0.0
20/06:30pm 23.4 21.2 16.9 67 4.0 N 24 30 13 16 1015.2 1015.2 0.0
20/06:00pm 23.5 20.9 16.8 66 4.1 NNE 26 30 14 16 1014.6 1014.6 0.0
20/05:30pm 23.6 21.6 17.3 67 3.9 NNE 24 28 13 15 1014.2 1014.2 0.0
20/05:00pm 23.5 20.9 16.8 66 4.1 NNE 26 30 14 16 1014.0 1014.0 0.0
20/04:30pm 23.5 21.0 17.0 67 4.0 NNE 26 30 14 16 1013.6 1013.6 0.0
20/04:00pm 23.8 21.2 16.8 65 4.3 NNE 26 30 14 16 1013.3 1013.3 0.0
20/03:30pm 23.5 20.9 15.8 62 4.7 NE 24 28 13 15 1013.1 1013.1 0.0
20/03:00pm 23.5 21.3 16.8 66 4.1 NE 24 28 13 15 1013.3 1013.3 0.0
20/02:30pm 23.4 20.5 16.0 63 4.5 NE 26 30 14 16 1013.6 1013.6 0.0
20/02:00pm 23.4 21.2 16.0 63 4.5 NE 22 26 12 14 1014.0 1014.0 0.0
20/01:30pm 23.6 21.7 16.6 65 4.3 NE 22 24 12 13 1014.6 1014.6 0.0
20/01:00pm 24.1 23.2 16.9 64 4.4 E 17 20 9 11 1015.2 1015.2 0.0
20/12:30pm 24.3 24.1 16.6 62 4.7 ESE 13 19 7 10 1015.8 1015.8 0.0
20/12:00pm 24.8 25.0 16.8 61 4.9 E 11 17 6 9 1016.4 1016.4 0.0
20/11:30am 25.0 25.4 16.4 59 5.3 SE 9 13 5 7 1017.0 1017.0 0.0
20/11:00am 24.6 25.6 16.8 62 4.8 S 7 13 4 7 1017.6 1017.6 0.0
20/10:30am 24.0 24.9 16.5 63 4.6 S 7 15 4 8 1017.9 1017.9 0.0

Other Formats:

Comma delimited format used in spreadsheet applications
http://www.bom.gov.au/fwo/IDQ60801/IDQ60801.94295.axf

JavaScript Object Notation format (JSON) in row-major order
http://www.bom.gov.au/fwo/IDQ60801/IDQ60801.94295.json